パラオ の空港の天気 - METARとTAF

パラオ国際空港 ( PTRO / ROR ) - パラオ アイライ州
飛行場実況気象(Metar)
観測時間10/22 20:50 PWT (10/22 11:50 UTC)
風向・風速北西 3m/s
視程10km以上
天気現象
全天の8割程度の雲 雲底高度 490m
全天の8割程度の雲 雲底高度 3350m
全天を覆う雲 雲底高度 8840m
気温27℃
湿度74%
気圧1009hPa
METARPTRO 221150Z 32005KT 13SM BKN016CB BKN110 OVC290 27/22 A2979 RMK CB ALQDS
過去の天気等 Google飛行場航空写真 Wunderground天気予報

過去48時間のMETAR

飛行場予報(TAF)
発表時間: 10/22 20:42 PWT (10/22 11:42 UTC)
予報対象時間: 22日21時 PWT ~ 23日21時 PWT
風向・風速西北西 6m/s
視程10km以上
天気現象弱いしゅう雨
全天の8割程度の雲 雲底高度 460m
全天の8割程度の雲 雲底高度 3350m
22日23時 PWT ~ 23日3時 PWT に一時的に
視程4830m
天気現象しゅう雨
全天の8割程度の雲 雲底高度 460m
全天を覆う雲 雲底高度 910m
23日9時 PWT から
風向・風速西南西 6m/s
視程10km以上
天気現象周辺でしゅう雨
全天の4割程度の雲 雲底高度 460m
全天の8割程度の雲 雲底高度 3350m
PTRO 221142Z 2212/2312 29011KT P6SM -SHRA BKN015 BKN110
TEMPO 2214/2218 3SM SHRA BKN015 OVC030
FM230000 25011KT P6SM VCSH SCT015 BKN110